This is the latest recevied weather packets stored in our database for station/object SR2GKG-13. If no packets are shown the sender has not sent any weather packets the latest 10 day(s).
| Time | Temp. | Humidity | Pressure | Rain* | Wind** | Luminosity | Snow |
|---|---|---|---|---|---|---|---|
| 1777919963 | 17.22° C | 59% | 999.7 hPa | - | - | - | - |
| 1777919063 | 18.33° C | 55% | 999.6 hPa | - | - | - | - |
| 1777918163 | 19.44° C | 50% | 999.5 hPa | - | - | - | - |
| 1777917263 | 20.56° C | 46% | 999.3 hPa | - | - | - | - |
| 1777916363 | 21.11° C | 44% | 999.3 hPa | - | - | - | - |
| 1777915462 | 21.11° C | 44% | 999.3 hPa | - | - | - | - |
| 1777914562 | 21.11° C | 43% | 999.3 hPa | - | - | - | - |
| 1777913662 | 21.67° C | 41% | 999.3 hPa | - | - | - | - |
| 1777912762 | 22.22° C | 40% | 999.3 hPa | - | - | - | - |
| 1777911862 | 22.78° C | 40% | 999.2 hPa | - | - | - | - |
| 1777910962 | 22.78° C | 41% | 999.4 hPa | - | - | - | - |
| 1777910062 | 22.78° C | 41% | 999.3 hPa | - | - | - | - |
| 1777909162 | 23.33° C | 40% | 999.4 hPa | - | - | - | - |
| 1777908262 | 23.89° C | 37% | 999.3 hPa | - | - | - | - |
| 1777907361 | 24.44° C | 35% | 999.2 hPa | - | - | - | - |
| 1777906461 | 25° C | 35% | 999.1 hPa | - | - | - | - |
| 1777905561 | 25° C | 35% | 999.1 hPa | - | - | - | - |
| 1777904660 | 25° C | 34% | 999.2 hPa | - | - | - | - |
| 1777903760 | 25° C | 34% | 999.1 hPa | - | - | - | - |
| 1777902860 | 26.67° C | 32% | 999.1 hPa | - | - | - | - |
| 1777901960 | 27.22° C | 32% | 999.4 hPa | - | - | - | - |
| 1777901060 | 27.22° C | 31% | 999.3 hPa | - | - | - | - |
| 1777900160 | 27.22° C | 32% | 999.5 hPa | - | - | - | - |
| 1777899260 | 26.11° C | 36% | 999.7 hPa | - | - | - | - |
| 1777898359 | 25.56° C | 36% | 999.8 hPa | - | - | - | - |
* Rain since midnight (hover to see other rain measurements)
** Current wind speed in m/s (hover to see current wind gust speed)